Time;durP1;ratioP1;P1;durP2;ratioP2;P2;SDS_P1;SDS_P2;PMS_P1;PMS_P2;Temp;Humidity;BMP_temperature;BMP_pressure;BME280_temperature;BME280_humidity;BME280_pressure;Samples;Min_cycle;Max_cycle;Signal;HPM_P1;HPM_P2
2022/01/19 00:00:09;;;;;;;;;;;3.90;90.10;;;;;;4986338;28;19914;-68
2022/01/19 00:02:34;;;;;;;;;;;3.90;90.40;;;;;;4986474;28;19910;-68
2022/01/19 00:05:00;;;;;;;;;;;3.90;90.40;;;;;;4986154;28;19956;-68
2022/01/19 00:07:26;;;;;;;;;;;3.90;90.60;;;;;;5003515;28;19921;-68
2022/01/19 00:09:51;;;;;;;;;;;3.90;90.80;;;;;;5005787;28;19910;-67
2022/01/19 00:12:17;;;;;;;;;;;3.90;90.80;;;;;;5005706;28;19917;-68
2022/01/19 00:14:43;;;;;;;;;;;3.90;90.80;;;;;;5004862;28;19953;-68
2022/01/19 00:17:08;;;;;;;;;;;3.90;90.50;;;;;;5005346;28;20335;-69
2022/01/19 00:19:34;;;;;;;;;;;3.90;90.50;;;;;;4988228;28;19948;-68
2022/01/19 00:22:00;;;;;;;;;;;3.80;90.40;;;;;;5005536;28;20021;-68
2022/01/19 00:24:25;;;;;;;;;;;3.80;90.50;;;;;;5005287;28;19937;-68
2022/01/19 00:26:51;;;;;;;;;;;3.80;90.30;;;;;;5004329;28;20156;-68
2022/01/19 00:29:17;;;;;;;;;;;3.80;90.30;;;;;;5004355;28;19916;-68
2022/01/19 00:31:42;;;;;;;;;;;3.80;90.00;;;;;;5005142;28;20239;-68
2022/01/19 00:34:08;;;;;;;;;;;3.70;90.20;;;;;;5005186;28;19916;-68
2022/01/19 00:36:34;;;;;;;;;;;3.60;90.30;;;;;;5004834;28;19917;-68
2022/01/19 00:38:59;;;;;;;;;;;3.60;90.60;;;;;;5004021;28;19981;-68
2022/01/19 00:41:25;;;;;;;;;;;3.60;90.60;;;;;;4987837;28;19916;-68
2022/01/19 00:43:51;;;;;;;;;;;3.60;90.70;;;;;;5005200;28;20200;-68
2022/01/19 00:46:17;;;;;;;;;;;3.70;90.60;;;;;;5004643;28;19917;-69
2022/01/19 00:48:42;;;;;;;;;;;3.60;90.50;;;;;;5004877;28;20117;-69
2022/01/19 00:51:08;;;;;;;;;;;3.70;90.60;;;;;;5003961;28;19984;-68
2022/01/19 00:53:34;;;;;;;;;;;3.60;90.50;;;;;;5005045;28;20086;-69
2022/01/19 00:55:59;;;;;;;;;;;3.60;90.70;;;;;;5004700;28;19916;-68
2022/01/19 00:58:25;;;;;;;;;;;3.60;90.90;;;;;;5004641;28;19921;-68
2022/01/19 01:00:51;;;;;;;;;;;3.50;91.20;;;;;;5003507;28;20116;-69
2022/01/19 01:03:16;;;;;;;;;;;3.50;91.00;;;;;;5004833;28;19909;-68
2022/01/19 01:05:43;;;;;;;;;;;3.60;90.90;;;;;;5003632;28;19918;-70
2022/01/19 01:08:08;;;;;;;;;;;3.50;90.90;;;;;;5004067;28;20318;-69
2022/01/19 01:10:42;;;;;;;;;;;3.50;91.00;;;;;;5005043;28;19918;-70
2022/01/19 01:16:00;;;;;;;;;;;3.50;91.30;;;;;;5002582;28;19917;-68
2022/01/19 01:18:26;;;;;;;;;;;3.50;91.30;;;;;;5004575;28;19913;-69
2022/01/19 01:20:53;;;;;;;;;;;3.50;91.20;;;;;;4986855;28;19940;-68
2022/01/19 01:23:20;;;;;;;;;;;3.60;91.20;;;;;;5004156;28;19910;-68
2022/01/19 01:25:46;;;;;;;;;;;3.60;91.20;;;;;;5003453;28;19913;-68
2022/01/19 01:28:12;;;;;;;;;;;3.60;91.10;;;;;;5003949;28;19948;-68
2022/01/19 01:30:38;;;;;;;;;;;3.60;91.20;;;;;;5003621;28;19910;-68
2022/01/19 01:33:03;;;;;;;;;;;3.50;91.40;;;;;;5004234;28;19960;-69
2022/01/19 01:35:30;;;;;;;;;;;3.50;91.40;;;;;;5003904;28;19909;-69
2022/01/19 01:37:56;;;;;;;;;;;3.50;91.40;;;;;;5003370;28;20094;-68
2022/01/19 01:40:24;;;;;;;;;;;3.40;91.70;;;;;;5004486;28;19977;-68
2022/01/19 01:42:52;;;;;;;;;;;3.50;91.80;;;;;;5003561;28;19933;-68
2022/01/19 01:45:23;;;;;;;;;;;3.50;91.80;;;;;;5003702;28;20209;-68
2022/01/19 01:47:55;;;;;;;;;;;3.50;91.80;;;;;;5004157;28;19920;-68
2022/01/19 01:56:05;;;;;;;;;;;3.60;91.30;;;;;;5002835;28;20138;-69
2022/01/19 01:58:39;;;;;;;;;;;3.60;91.10;;;;;;5003056;28;19936;-69
2022/01/19 02:01:05;;;;;;;;;;;3.60;91.30;;;;;;5003455;28;19914;-69
2022/01/19 02:03:37;;;;;;;;;;;3.50;91.50;;;;;;5003846;28;19980;-69
2022/01/19 02:09:12;;;;;;;;;;;3.50;91.40;;;;;;5002256;28;20064;-69
2022/01/19 02:23:17;;;;;;;;;;;3.50;91.40;;;;;;5037593;23;19944;-78
2022/01/19 02:25:45;;;;;;;;;;;3.40;91.80;;;;;;5035253;28;19909;-78
2022/01/19 02:41:39;;;;;;;;;;;3.20;92.00;;;;;;4997376;28;19975;-80
2022/01/19 02:44:05;;;;;;;;;;;3.00;92.20;;;;;;5013191;28;19909;-84
2022/01/19 02:49:16;;;;;;;;;;;2.90;92.50;;;;;;5020209;28;20378;-80
2022/01/19 02:51:48;;;;;;;;;;;2.80;92.50;;;;;;5020752;28;19910;-79
2022/01/19 02:54:15;;;;;;;;;;;2.80;92.70;;;;;;5020270;28;19910;-80
2022/01/19 02:56:44;;;;;;;;;;;2.80;92.80;;;;;;4996116;28;19909;-78
2022/01/19 02:59:21;;;;;;;;;;;2.70;93.00;;;;;;4985097;28;19925;-78
2022/01/19 03:09:44;;;;;;;;;;;2.40;93.70;;;;;;5020459;28;19909;-79
2022/01/19 03:12:10;;;;;;;;;;;2.40;93.80;;;;;;5020331;28;19910;-78
2022/01/19 03:14:36;;;;;;;;;;;2.50;93.90;;;;;;5036711;28;19910;-78
2022/01/19 03:17:02;;;;;;;;;;;2.60;93.90;;;;;;5004115;28;19915;-78
2022/01/19 03:19:30;;;;;;;;;;;2.60;93.80;;;;;;5036535;28;19937;-78
2022/01/19 03:21:55;;;;;;;;;;;2.60;93.80;;;;;;5021190;28;19909;-78
2022/01/19 03:24:21;;;;;;;;;;;2.70;93.80;;;;;;5020182;28;19909;-79
2022/01/19 03:26:47;;;;;;;;;;;2.70;93.70;;;;;;5019519;28;20089;-77
2022/01/19 03:29:12;;;;;;;;;;;2.70;93.70;;;;;;5020368;28;19913;-78
2022/01/19 03:31:38;;;;;;;;;;;2.80;93.70;;;;;;5003419;28;19948;-78
2022/01/19 03:34:05;;;;;;;;;;;2.80;93.80;;;;;;5007337;28;19909;-78
2022/01/19 03:36:31;;;;;;;;;;;2.80;93.80;;;;;;5023177;28;19984;-78
2022/01/19 03:38:57;;;;;;;;;;;2.90;93.70;;;;;;5022959;28;19914;-77
2022/01/19 03:41:22;;;;;;;;;;;3.00;93.40;;;;;;5023459;28;20211;-78
2022/01/19 03:43:48;;;;;;;;;;;3.00;93.30;;;;;;5022359;28;19951;-78
2022/01/19 03:46:15;;;;;;;;;;;3.10;93.00;;;;;;5011743;28;19930;-79
2022/01/19 03:48:52;;;;;;;;;;;3.10;92.90;;;;;;5003930;28;19918;-78
2022/01/19 03:51:18;;;;;;;;;;;3.10;92.80;;;;;;5012728;28;19919;-78
2022/01/19 03:53:43;;;;;;;;;;;3.20;92.90;;;;;;5013754;28;19917;-78
2022/01/19 03:56:09;;;;;;;;;;;3.10;93.00;;;;;;4994807;28;19932;-77
2022/01/19 03:58:36;;;;;;;;;;;3.20;92.90;;;;;;4987786;28;20023;-77
2022/01/19 04:01:03;;;;;;;;;;;3.20;92.80;;;;;;5006305;28;19910;-78
2022/01/19 04:04:24;;;;;;;;;;;3.10;93.20;;;;;;5007070;28;19924;-79
2022/01/19 04:06:25;;;;;;;;;;;3.10;93.10;;;;;;5023709;28;19909;-79
2022/01/19 04:08:51;;;;;;;;;;;3.20;92.80;;;;;;5023330;28;20153;-79
2022/01/19 04:11:18;;;;;;;;;;;3.00;92.90;;;;;;5039640;28;19910;-80
2022/01/19 04:13:58;;;;;;;;;;;3.00;92.90;;;;;;5022858;28;19941;-78
2022/01/19 04:16:24;;;;;;;;;;;2.90;93.00;;;;;;5036585;28;19917;-78
2022/01/19 04:18:55;;;;;;;;;;;2.90;93.20;;;;;;5039357;28;20000;-78
2022/01/19 04:21:21;;;;;;;;;;;2.80;93.20;;;;;;5038762;28;20139;-82
2022/01/19 04:23:48;;;;;;;;;;;2.80;93.30;;;;;;5022676;28;19914;-79
2022/01/19 04:26:13;;;;;;;;;;;2.80;93.50;;;;;;5024780;28;19909;-80
2022/01/19 04:28:39;;;;;;;;;;;2.80;93.40;;;;;;5023421;28;20163;-80
2022/01/19 04:31:05;;;;;;;;;;;2.80;93.40;;;;;;5022565;28;19955;-77
2022/01/19 04:33:30;;;;;;;;;;;2.80;93.40;;;;;;5039295;28;19910;-78
2022/01/19 04:36:18;;;;;;;;;;;2.70;93.50;;;;;;5022343;28;20220;-78
2022/01/19 04:47:11;;;;;;;;;;;2.70;93.70;;;;;;5022519;28;19952;-78
2022/01/19 05:03:04;;;;;;;;;;;2.30;94.30;;;;;;5036800;28;19964;-78
2022/01/19 05:05:42;;;;;;;;;;;2.30;94.30;;;;;;5035261;28;19981;-79
2022/01/19 05:08:39;;;;;;;;;;;2.20;94.50;;;;;;5022057;28;19928;-78
2022/01/19 05:13:52;;;;;;;;;;;2.00;94.80;;;;;;5036102;28;19948;-78
2022/01/19 05:16:21;;;;;;;;;;;1.90;95.10;;;;;;5022814;28;19910;-80
2022/01/19 05:18:48;;;;;;;;;;;1.80;95.30;;;;;;5036866;28;19937;-79
2022/01/19 05:21:14;;;;;;;;;;;1.90;95.40;;;;;;5038308;28;20002;-77
2022/01/19 05:23:40;;;;;;;;;;;1.80;95.40;;;;;;5020158;28;19914;-78
2022/01/19 05:26:05;;;;;;;;;;;1.80;95.50;;;;;;5037885;28;19947;-78
2022/01/19 05:28:31;;;;;;;;;;;1.70;95.60;;;;;;5021503;28;19909;-78
2022/01/19 05:30:57;;;;;;;;;;;1.70;95.70;;;;;;5037309;28;19932;-80
2022/01/19 05:33:22;;;;;;;;;;;1.80;95.70;;;;;;5021096;28;19909;-77
2022/01/19 05:35:48;;;;;;;;;;;1.70;95.70;;;;;;5037493;28;19977;-78
2022/01/19 05:38:14;;;;;;;;;;;1.70;95.80;;;;;;5021143;28;19964;-78
2022/01/19 05:40:39;;;;;;;;;;;1.70;95.90;;;;;;5037594;28;20016;-79
2022/01/19 05:43:05;;;;;;;;;;;1.60;96.00;;;;;;5037092;28;20223;-81
2022/01/19 05:45:31;;;;;;;;;;;1.70;96.00;;;;;;5020412;28;19957;-78
2022/01/19 05:47:57;;;;;;;;;;;1.80;95.90;;;;;;5020946;28;19913;-76
2022/01/19 05:50:24;;;;;;;;;;;1.90;95.80;;;;;;5004814;28;19916;-74
2022/01/19 05:52:50;;;;;;;;;;;1.90;95.80;;;;;;5021090;28;19968;-73
2022/01/19 05:55:16;;;;;;;;;;;1.90;96.00;;;;;;5030731;28;19909;-74
2022/01/19 05:57:42;;;;;;;;;;;1.90;96.00;;;;;;5020495;28;19928;-74
2022/01/19 06:00:08;;;;;;;;;;;2.10;95.60;;;;;;5037471;28;19924;-74
2022/01/19 06:02:33;;;;;;;;;;;2.20;95.50;;;;;;5037471;28;19910;-73
2022/01/19 06:04:59;;;;;;;;;;;2.20;95.40;;;;;;5020624;28;19910;-74
2022/01/19 06:07:28;;;;;;;;;;;2.20;95.30;;;;;;5021313;28;19910;-74
2022/01/19 06:10:05;;;;;;;;;;;2.20;95.30;;;;;;5020291;28;19932;-74
2022/01/19 06:12:31;;;;;;;;;;;2.20;95.30;;;;;;5036370;28;20167;-74
2022/01/19 06:14:56;;;;;;;;;;;2.20;95.20;;;;;;5021353;28;19937;-73
2022/01/19 06:17:22;;;;;;;;;;;2.20;95.20;;;;;;5022065;28;19909;-74
2022/01/19 06:19:48;;;;;;;;;;;2.30;95.20;;;;;;5019967;28;20343;-73
2022/01/19 06:22:14;;;;;;;;;;;2.30;95.10;;;;;;5021637;28;19988;-74
2022/01/19 06:24:40;;;;;;;;;;;2.30;94.90;;;;;;5036711;28;19917;-73
2022/01/19 06:27:06;;;;;;;;;;;2.30;94.80;;;;;;5011660;28;19925;-73
2022/01/19 06:29:32;;;;;;;;;;;2.30;94.80;;;;;;4993847;28;19917;-73
2022/01/19 06:31:58;;;;;;;;;;;2.30;94.90;;;;;;5003623;28;19956;-73
2022/01/19 06:34:23;;;;;;;;;;;2.30;94.90;;;;;;5021517;28;19910;-73
2022/01/19 06:36:52;;;;;;;;;;;2.30;94.70;;;;;;5036867;28;19910;-73
2022/01/19 06:39:19;;;;;;;;;;;2.30;94.70;;;;;;5021858;28;19914;-73
2022/01/19 06:41:44;;;;;;;;;;;2.30;94.80;;;;;;5019686;28;19957;-73
2022/01/19 06:44:12;;;;;;;;;;;2.30;95.00;;;;;;5020414;28;20098;-73
2022/01/19 06:46:37;;;;;;;;;;;2.20;94.90;;;;;;5019620;28;19909;-73
2022/01/19 06:49:03;;;;;;;;;;;2.20;94.70;;;;;;5020860;28;20093;-74
2022/01/19 06:51:29;;;;;;;;;;;2.30;94.70;;;;;;5021798;28;19909;-73
2022/01/19 06:53:54;;;;;;;;;;;2.30;94.70;;;;;;5020864;28;19917;-73
2022/01/19 06:56:20;;;;;;;;;;;2.20;94.60;;;;;;5021091;28;19929;-73
2022/01/19 06:58:46;;;;;;;;;;;2.10;94.90;;;;;;5021595;28;20116;-73
2022/01/19 07:01:12;;;;;;;;;;;2.10;94.90;;;;;;5037099;28;20247;-73
2022/01/19 07:03:38;;;;;;;;;;;1.90;95.10;;;;;;5038588;28;19909;-73
2022/01/19 07:06:03;;;;;;;;;;;1.80;95.40;;;;;;5023568;28;19916;-73
2022/01/19 07:08:29;;;;;;;;;;;1.80;95.40;;;;;;5028789;28;19917;-73
2022/01/19 07:10:55;;;;;;;;;;;1.70;95.60;;;;;;5041359;28;19932;-73
2022/01/19 07:13:21;;;;;;;;;;;1.70;95.80;;;;;;5041055;28;19916;-73
2022/01/19 07:15:47;;;;;;;;;;;1.60;95.90;;;;;;5023908;28;20253;-72
2022/01/19 07:18:13;;;;;;;;;;;1.70;95.80;;;;;;5040285;28;19988;-74
2022/01/19 07:20:39;;;;;;;;;;;1.70;95.80;;;;;;5025487;28;19909;-72
2022/01/19 07:23:04;;;;;;;;;;;1.60;95.90;;;;;;5041024;28;19914;-72
2022/01/19 07:25:31;;;;;;;;;;;1.60;96.00;;;;;;5023422;28;20036;-71
2022/01/19 07:27:56;;;;;;;;;;;1.60;96.30;;;;;;5025519;28;19920;-72
2022/01/19 07:30:24;;;;;;;;;;;1.50;96.50;;;;;;5039345;28;19976;-72
2022/01/19 07:32:51;;;;;;;;;;;1.50;96.80;;;;;;5033072;28;19909;-72
2022/01/19 07:35:17;;;;;;;;;;;1.40;96.80;;;;;;5000313;28;20069;-72
2022/01/19 07:37:42;;;;;;;;;;;1.50;96.70;;;;;;5020392;28;19932;-72
2022/01/19 07:40:09;;;;;;;;;;;1.50;96.90;;;;;;5023062;28;19982;-72
2022/01/19 07:42:34;;;;;;;;;;;1.50;96.80;;;;;;5024466;28;19909;-72
2022/01/19 07:45:00;;;;;;;;;;;1.50;96.20;;;;;;5024088;28;19916;-72
2022/01/19 07:47:27;;;;;;;;;;;1.60;95.70;;;;;;5006196;28;19916;-72
2022/01/19 07:49:54;;;;;;;;;;;1.60;95.40;;;;;;5039824;28;19990;-72
2022/01/19 07:52:21;;;;;;;;;;;1.60;95.50;;;;;;5024491;28;19980;-72
2022/01/19 07:54:47;;;;;;;;;;;1.60;95.50;;;;;;5023158;28;19910;-72
2022/01/19 07:57:12;;;;;;;;;;;1.70;95.30;;;;;;5024690;28;20103;-72
2022/01/19 07:59:38;;;;;;;;;;;1.70;95.20;;;;;;5024614;28;19921;-72
2022/01/19 08:02:04;;;;;;;;;;;1.80;95.20;;;;;;5039696;28;19933;-72
2022/01/19 08:04:29;;;;;;;;;;;1.80;94.90;;;;;;5023455;28;20161;-72
2022/01/19 08:06:55;;;;;;;;;;;1.80;94.80;;;;;;5039382;28;20082;-72
2022/01/19 08:09:21;;;;;;;;;;;1.90;94.70;;;;;;5024330;28;19956;-72
2022/01/19 08:11:47;;;;;;;;;;;1.90;94.50;;;;;;5038443;28;20013;-72
2022/01/19 08:14:13;;;;;;;;;;;1.90;94.50;;;;;;5039600;28;19992;-72
2022/01/19 08:16:39;;;;;;;;;;;1.90;94.50;;;;;;5022692;28;19959;-72
2022/01/19 08:19:04;;;;;;;;;;;1.90;94.60;;;;;;5023320;28;19914;-72
2022/01/19 08:21:30;;;;;;;;;;;1.80;94.80;;;;;;5024009;28;20271;-72
2022/01/19 08:23:56;;;;;;;;;;;1.80;94.70;;;;;;5076009;23;19963;-69
2022/01/19 08:26:21;;;;;;;;;;;1.90;94.60;;;;;;5051501;28;19934;-69
2022/01/19 08:28:47;;;;;;;;;;;1.90;94.50;;;;;;5044311;28;19955;-70
2022/01/19 08:31:13;;;;;;;;;;;2.00;94.60;;;;;;5044709;28;19916;-70
2022/01/19 08:33:38;;;;;;;;;;;2.10;94.30;;;;;;5044701;28;19928;-69
2022/01/19 08:36:04;;;;;;;;;;;2.20;93.70;;;;;;5044509;28;19909;-69
2022/01/19 08:38:30;;;;;;;;;;;2.30;93.60;;;;;;5044067;28;19940;-69
2022/01/19 08:40:55;;;;;;;;;;;2.30;93.50;;;;;;5044428;28;19932;-69
2022/01/19 08:43:21;;;;;;;;;;;2.30;93.90;;;;;;5044278;28;20208;-69
2022/01/19 08:45:47;;;;;;;;;;;2.40;93.40;;;;;;5043997;28;20204;-70
2022/01/19 08:48:12;;;;;;;;;;;2.40;93.10;;;;;;5044118;28;19940;-69
2022/01/19 08:50:38;;;;;;;;;;;2.40;93.20;;;;;;5043444;28;20085;-69
2022/01/19 08:53:04;;;;;;;;;;;2.40;93.30;;;;;;5043946;28;19909;-69
2022/01/19 08:55:30;;;;;;;;;;;2.40;93.30;;;;;;5043986;28;20127;-69
2022/01/19 08:57:55;;;;;;;;;;;2.40;93.40;;;;;;5042963;28;19909;-69
2022/01/19 09:00:21;;;;;;;;;;;2.50;92.90;;;;;;5044141;28;19955;-69
2022/01/19 09:02:47;;;;;;;;;;;2.50;92.70;;;;;;5043301;28;19996;-69
2022/01/19 09:05:13;;;;;;;;;;;2.50;92.70;;;;;;5043495;28;19909;-69
2022/01/19 09:07:38;;;;;;;;;;;2.60;92.70;;;;;;5043979;28;19916;-69
2022/01/19 09:10:06;;;;;;;;;;;2.70;92.30;;;;;;5043058;28;19909;-69
2022/01/19 09:12:31;;;;;;;;;;;2.70;91.80;;;;;;5042532;28;19909;-69
2022/01/19 09:14:57;;;;;;;;;;;2.70;91.60;;;;;;5043746;28;20011;-69
2022/01/19 09:17:23;;;;;;;;;;;2.70;91.40;;;;;;5043838;28;20069;-70
2022/01/19 09:19:49;;;;;;;;;;;2.80;91.20;;;;;;5043195;28;19913;-69
2022/01/19 09:22:14;;;;;;;;;;;2.80;90.90;;;;;;5043729;28;19909;-70
2022/01/19 09:24:40;;;;;;;;;;;2.70;90.90;;;;;;5042800;28;19916;-69
2022/01/19 09:27:08;;;;;;;;;;;2.80;90.90;;;;;;5042736;28;19915;-69
2022/01/19 09:29:38;;;;;;;;;;;2.80;90.90;;;;;;5043027;28;19995;-69
2022/01/19 09:32:07;;;;;;;;;;;2.80;91.00;;;;;;5043481;28;19909;-69
2022/01/19 09:34:34;;;;;;;;;;;2.80;90.40;;;;;;5042907;28;19919;-69
2022/01/19 09:36:59;;;;;;;;;;;2.80;90.50;;;;;;5043569;28;19909;-69
2022/01/19 09:39:25;;;;;;;;;;;2.80;90.20;;;;;;5043370;28;19921;-69
2022/01/19 09:41:52;;;;;;;;;;;2.70;90.30;;;;;;5043560;28;19909;-69
2022/01/19 09:44:18;;;;;;;;;;;2.70;90.50;;;;;;5042020;28;19909;-68
2022/01/19 09:46:44;;;;;;;;;;;2.70;90.50;;;;;;5043118;28;19920;-68
2022/01/19 09:49:12;;;;;;;;;;;2.60;90.70;;;;;;5042817;28;19909;-68
2022/01/19 09:51:42;;;;;;;;;;;2.50;90.80;;;;;;5041935;28;19919;-68
2022/01/19 09:54:07;;;;;;;;;;;2.50;91.00;;;;;;5041958;28;19924;-70
2022/01/19 09:56:33;;;;;;;;;;;2.50;91.20;;;;;;5042404;28;19928;-69
2022/01/19 09:58:59;;;;;;;;;;;2.40;91.30;;;;;;5042907;28;19913;-68
2022/01/19 10:01:25;;;;;;;;;;;2.40;91.60;;;;;;5042115;28;20204;-68
2022/01/19 10:03:51;;;;;;;;;;;2.40;91.50;;;;;;5043093;28;19932;-68
2022/01/19 10:06:22;;;;;;;;;;;2.50;91.60;;;;;;5042423;28;19976;-68
2022/01/19 10:08:55;;;;;;;;;;;2.40;91.50;;;;;;5043193;28;19955;-67
2022/01/19 10:16:58;;;;;;;;;;;2.40;91.60;;;;;;5041980;28;19909;-68
2022/01/19 10:17:06;;;;;;;;;;;2.40;91.70;;;;;;5042952;28;19931;-68
2022/01/19 10:19:50;;;;;;;;;;;2.40;91.50;;;;;;5042854;28;19952;-70
2022/01/19 10:22:25;;;;;;;;;;;2.30;91.80;;;;;;5037795;28;19984;-66
2022/01/19 10:24:56;;;;;;;;;;;2.20;92.00;;;;;;5041329;28;19975;-66
2022/01/19 10:27:37;;;;;;;;;;;2.20;92.10;;;;;;5043108;28;19909;-66
2022/01/19 10:30:03;;;;;;;;;;;2.20;91.90;;;;;;5042461;28;19910;-65
2022/01/19 10:32:40;;;;;;;;;;;2.10;92.10;;;;;;5042636;28;19909;-65
2022/01/19 10:35:32;;;;;;;;;;;2.10;92.30;;;;;;5042774;28;19972;-66
2022/01/19 10:38:07;;;;;;;;;;;2.10;92.50;;;;;;5041701;28;19977;-66
2022/01/19 10:40:33;;;;;;;;;;;2.10;92.40;;;;;;5043024;28;19928;-65
2022/01/19 10:42:59;;;;;;;;;;;2.10;92.30;;;;;;5062315;28;19941;-66
2022/01/19 10:45:25;;;;;;;;;;;2.10;92.40;;;;;;5046448;28;19917;-65
2022/01/19 10:47:56;;;;;;;;;;;2.10;92.30;;;;;;5028936;28;19984;-66
2022/01/19 10:50:28;;;;;;;;;;;1.90;92.50;;;;;;5045516;28;19925;-66
2022/01/19 10:52:54;;;;;;;;;;;2.00;92.60;;;;;;5046503;28;19909;-66
2022/01/19 10:55:20;;;;;;;;;;;2.00;92.70;;;;;;5041205;28;19980;-66
2022/01/19 10:57:47;;;;;;;;;;;2.00;92.80;;;;;;5026639;28;20201;-66
2022/01/19 11:00:23;;;;;;;;;;;2.00;92.90;;;;;;5026424;28;19956;-66
2022/01/19 11:02:50;;;;;;;;;;;2.10;92.60;;;;;;5040115;28;19917;-66
2022/01/19 11:05:16;;;;;;;;;;;2.20;92.30;;;;;;5046066;28;19916;-66
2022/01/19 11:07:42;;;;;;;;;;;2.20;92.30;;;;;;5045452;28;20270;-64
2022/01/19 11:10:18;;;;;;;;;;;2.10;92.10;;;;;;5046090;28;19909;-66
2022/01/19 11:12:49;;;;;;;;;;;2.10;92.30;;;;;;5046257;28;20147;-65
2022/01/19 11:15:18;;;;;;;;;;;2.10;92.40;;;;;;5045030;28;19917;-65
2022/01/19 11:17:46;;;;;;;;;;;2.10;92.60;;;;;;5045402;28;20456;-65
2022/01/19 11:20:19;;;;;;;;;;;2.10;92.60;;;;;;5045201;28;20116;-65
2022/01/19 11:22:57;;;;;;;;;;;2.10;92.70;;;;;;5045488;28;19917;-66
2022/01/19 11:25:45;;;;;;;;;;;2.20;92.80;;;;;;5044710;28;19917;-66
2022/01/19 11:28:22;;;;;;;;;;;2.20;92.60;;;;;;5046112;28;19909;-66
2022/01/19 11:30:48;;;;;;;;;;;2.20;92.50;;;;;;5046196;28;19909;-66
2022/01/19 11:33:26;;;;;;;;;;;2.20;92.50;;;;;;5044928;28;20262;-65
2022/01/19 11:35:55;;;;;;;;;;;2.20;92.50;;;;;;5048945;28;20009;-66
2022/01/19 11:38:33;;;;;;;;;;;2.20;92.60;;;;;;5055584;28;19944;-66
2022/01/19 11:41:00;;;;;;;;;;;2.20;92.60;;;;;;5053871;28;19913;-66
2022/01/19 11:43:29;;;;;;;;;;;2.20;92.90;;;;;;5050003;28;20353;-66
2022/01/19 11:45:55;;;;;;;;;;;2.20;92.80;;;;;;5051768;28;19909;-66
2022/01/19 11:48:23;;;;;;;;;;;2.20;92.90;;;;;;5045082;28;19912;-66
2022/01/19 11:50:49;;;;;;;;;;;2.20;92.70;;;;;;5043523;28;19944;-66
2022/01/19 11:53:15;;;;;;;;;;;2.30;92.90;;;;;;5044483;28;19909;-66
2022/01/19 11:55:59;;;;;;;;;;;2.40;92.50;;;;;;5044935;28;19916;-66
2022/01/19 11:58:24;;;;;;;;;;;2.50;92.40;;;;;;5044787;28;19917;-66
2022/01/19 12:00:51;;;;;;;;;;;2.50;92.10;;;;;;5045112;28;20023;-66
2022/01/19 12:03:35;;;;;;;;;;;2.70;91.60;;;;;;5045288;28;19932;-65
2022/01/19 12:06:00;;;;;;;;;;;2.80;91.50;;;;;;5045124;28;19909;-66
2022/01/19 12:08:31;;;;;;;;;;;2.60;91.30;;;;;;5044012;28;19971;-66
2022/01/19 12:11:17;;;;;;;;;;;2.80;91.40;;;;;;5044853;28;19909;-65
2022/01/19 12:16:20;;;;;;;;;;;3.40;89.60;;;;;;5044951;28;19917;-66
2022/01/19 12:18:56;;;;;;;;;;;3.90;87.40;;;;;;5044661;28;19931;-65
2022/01/19 12:21:31;;;;;;;;;;;4.20;85.80;;;;;;5043047;28;20143;-65
2022/01/19 12:23:59;;;;;;;;;;;4.60;83.50;;;;;;5039878;28;20204;-66
2022/01/19 12:26:25;;;;;;;;;;;4.80;81.60;;;;;;5026874;28;19924;-65
2022/01/19 12:28:52;;;;;;;;;;;5.00;80.40;;;;;;5026975;28;20140;-66
2022/01/19 12:31:23;;;;;;;;;;;5.00;80.00;;;;;;5044679;28;20258;-66
2022/01/19 12:36:58;;;;;;;;;;;4.60;80.70;;;;;;5041718;28;20013;-66
2022/01/19 12:39:27;;;;;;;;;;;4.00;84.30;;;;;;5043531;28;20200;-66
2022/01/19 12:41:55;;;;;;;;;;;3.80;85.90;;;;;;5043373;28;19917;-65
2022/01/19 12:44:49;;;;;;;;;;;3.60;87.10;;;;;;5044242;28;19980;-66
2022/01/19 12:47:27;;;;;;;;;;;3.60;87.30;;;;;;5040066;28;19927;-66
2022/01/19 12:50:07;;;;;;;;;;;3.40;88.50;;;;;;5044523;28;19909;-66
2022/01/19 12:52:34;;;;;;;;;;;3.30;89.40;;;;;;5044384;28;19910;-67
2022/01/19 12:55:14;;;;;;;;;;;3.30;89.70;;;;;;5044175;28;20243;-67
2022/01/19 12:57:40;;;;;;;;;;;3.20;90.00;;;;;;5043472;28;19971;-67
2022/01/19 13:00:20;;;;;;;;;;;3.10;90.30;;;;;;5044381;28;19909;-67
2022/01/19 13:02:46;;;;;;;;;;;3.00;90.40;;;;;;5045181;28;19921;-67
2022/01/19 13:05:14;;;;;;;;;;;2.90;90.60;;;;;;5043046;28;20227;-64
2022/01/19 13:07:45;;;;;;;;;;;2.90;90.70;;;;;;5042816;28;19917;-65
2022/01/19 13:12:56;;;;;;;;;;;3.00;91.10;;;;;;5042998;28;19910;-66
2022/01/19 13:15:43;;;;;;;;;;;3.00;91.10;;;;;;5043744;28;19915;-66
2022/01/19 13:18:09;;;;;;;;;;;3.10;91.00;;;;;;5035351;28;19909;-66
2022/01/19 13:20:34;;;;;;;;;;;3.10;90.70;;;;;;5023941;28;19959;-66
2022/01/19 13:23:01;;;;;;;;;;;3.20;90.60;;;;;;5023772;28;19949;-65
2022/01/19 13:25:32;;;;;;;;;;;3.10;90.70;;;;;;5023678;28;20267;-66
2022/01/19 13:28:00;;;;;;;;;;;3.20;90.80;;;;;;5034376;28;19916;-66
2022/01/19 13:30:28;;;;;;;;;;;3.20;90.80;;;;;;5043585;28;19937;-66
2022/01/19 13:32:54;;;;;;;;;;;3.10;91.00;;;;;;5043707;28;19909;-65
2022/01/19 13:35:20;;;;;;;;;;;3.20;90.60;;;;;;5043285;28;19917;-65
2022/01/19 13:37:55;;;;;;;;;;;3.20;90.80;;;;;;5043675;28;19936;-65
2022/01/19 13:40:25;;;;;;;;;;;3.30;90.80;;;;;;5042723;28;19959;-66
2022/01/19 13:43:02;;;;;;;;;;;3.30;90.60;;;;;;5043160;28;19909;-66
2022/01/19 13:50:44;;;;;;;;;;;3.40;90.70;;;;;;5023952;28;19947;-65
2022/01/19 13:53:10;;;;;;;;;;;3.50;90.20;;;;;;5038901;28;19910;-65
2022/01/19 13:55:36;;;;;;;;;;;3.60;90.20;;;;;;5038517;28;19916;-66
2022/01/19 13:58:04;;;;;;;;;;;3.70;90.10;;;;;;5039976;28;19971;-66
2022/01/19 14:00:30;;;;;;;;;;;3.70;90.00;;;;;;5043159;28;19913;-66
2022/01/19 14:02:58;;;;;;;;;;;3.80;89.80;;;;;;5042472;28;19916;-65
2022/01/19 14:05:42;;;;;;;;;;;3.70;89.70;;;;;;5042741;28;19917;-65
2022/01/19 14:08:08;;;;;;;;;;;3.70;90.10;;;;;;5041973;28;19909;-65
2022/01/19 14:10:48;;;;;;;;;;;3.60;90.20;;;;;;5043090;28;19955;-66
2022/01/19 14:13:26;;;;;;;;;;;3.50;90.40;;;;;;5043007;28;19909;-65
2022/01/19 14:16:17;;;;;;;;;;;3.40;90.60;;;;;;5041326;28;19909;-66
2022/01/19 14:18:42;;;;;;;;;;;3.30;91.10;;;;;;5041661;28;20120;-65
2022/01/19 14:21:09;;;;;;;;;;;3.20;91.10;;;;;;5042550;28;19959;-66
2022/01/19 14:23:35;;;;;;;;;;;3.20;91.40;;;;;;5042621;28;19948;-66
2022/01/19 14:26:08;;;;;;;;;;;3.10;91.50;;;;;;5041653;28;19917;-65
2022/01/19 14:28:36;;;;;;;;;;;3.20;91.50;;;;;;5042759;28;19909;-65
2022/01/19 14:31:03;;;;;;;;;;;3.10;91.60;;;;;;5041789;28;20227;-65
2022/01/19 14:33:29;;;;;;;;;;;3.10;92.00;;;;;;5042415;28;19916;-67
2022/01/19 14:35:57;;;;;;;;;;;3.10;91.80;;;;;;5042471;28;19984;-66
2022/01/19 14:38:30;;;;;;;;;;;3.10;91.90;;;;;;5041586;28;19909;-67
2022/01/19 14:41:20;;;;;;;;;;;3.10;91.80;;;;;;5041661;28;19978;-67
2022/01/19 14:43:59;;;;;;;;;;;3.10;91.90;;;;;;5023237;28;20104;-67
2022/01/19 14:46:40;;;;;;;;;;;3.10;91.80;;;;;;5022586;28;19977;-67
2022/01/19 14:49:06;;;;;;;;;;;3.10;91.90;;;;;;5041074;28;19910;-66
2022/01/19 14:51:35;;;;;;;;;;;3.10;92.00;;;;;;5041962;28;20258;-66
2022/01/19 14:54:04;;;;;;;;;;;3.20;92.00;;;;;;5040460;28;19920;-67
2022/01/19 14:56:30;;;;;;;;;;;3.20;92.20;;;;;;5041139;28;19915;-66
2022/01/19 14:59:18;;;;;;;;;;;3.20;92.00;;;;;;5041606;28;19945;-66
2022/01/19 15:01:50;;;;;;;;;;;3.20;92.00;;;;;;5042532;28;19984;-66
2022/01/19 15:04:16;;;;;;;;;;;3.20;92.10;;;;;;5041632;28;19909;-66
2022/01/19 15:06:43;;;;;;;;;;;3.20;92.00;;;;;;5042285;28;20234;-67
2022/01/19 15:09:10;;;;;;;;;;;3.30;92.10;;;;;;5042322;28;19909;-67
2022/01/19 15:11:36;;;;;;;;;;;3.30;92.00;;;;;;5041042;28;19909;-66
2022/01/19 15:14:02;;;;;;;;;;;3.30;92.10;;;;;;5042173;28;19909;-65
2022/01/19 15:16:28;;;;;;;;;;;3.20;92.10;;;;;;5040592;28;19931;-67
2022/01/19 15:18:54;;;;;;;;;;;3.20;92.30;;;;;;5041092;28;19956;-66
2022/01/19 15:21:19;;;;;;;;;;;3.20;92.40;;;;;;5041873;28;20108;-65
2022/01/19 15:23:46;;;;;;;;;;;3.30;92.40;;;;;;5041587;28;19913;-66
2022/01/19 15:26:11;;;;;;;;;;;3.30;92.30;;;;;;5042094;28;19915;-66
2022/01/19 15:28:37;;;;;;;;;;;3.30;92.40;;;;;;5044074;28;19913;-66
2022/01/19 15:31:04;;;;;;;;;;;3.20;92.50;;;;;;5045909;28;19909;-64
2022/01/19 15:33:30;;;;;;;;;;;3.30;92.70;;;;;;5044976;28;19916;-65
2022/01/19 15:35:56;;;;;;;;;;;3.30;92.70;;;;;;5044375;28;19976;-65
2022/01/19 15:38:22;;;;;;;;;;;3.30;93.00;;;;;;5045275;28;19916;-66
2022/01/19 15:40:48;;;;;;;;;;;3.40;92.60;;;;;;5045803;28;20230;-65
2022/01/19 15:43:14;;;;;;;;;;;3.40;92.60;;;;;;5045778;28;19940;-66
2022/01/19 15:45:41;;;;;;;;;;;3.50;92.50;;;;;;5045315;28;20200;-66
2022/01/19 15:48:09;;;;;;;;;;;3.50;92.30;;;;;;5045467;28;19909;-66
2022/01/19 15:50:35;;;;;;;;;;;3.60;92.20;;;;;;5045404;28;19909;-66
2022/01/19 15:53:01;;;;;;;;;;;3.50;92.10;;;;;;5045368;28;19936;-65
2022/01/19 15:55:27;;;;;;;;;;;3.60;92.10;;;;;;5045379;28;20246;-67
2022/01/19 15:57:53;;;;;;;;;;;3.60;92.00;;;;;;5044195;28;19909;-66
2022/01/19 16:00:19;;;;;;;;;;;3.60;91.60;;;;;;5043721;28;19913;-66
2022/01/19 16:02:44;;;;;;;;;;;3.60;91.70;;;;;;5045456;28;20089;-66
2022/01/19 16:05:10;;;;;;;;;;;3.70;91.90;;;;;;5045065;28;19909;-66